Time;durP1;ratioP1;P1;durP2;ratioP2;P2;SDS_P1;SDS_P2;PMS_P1;PMS_P2;Temp;Humidity;BMP_temperature;BMP_pressure;BME280_temperature;BME280_humidity;BME280_pressure;Samples;Min_cycle;Max_cycle;Signal;HPM_P1;HPM_P2
2023/05/07 00:00:09;;;;;;;8.57;7.72;;;;;;;15.59;92.28;101474.41;5074444;28;20024;-67
2023/05/07 00:02:35;;;;;;;8.20;7.53;;;;;;;15.60;92.76;101476.97;5072997;28;20039;-67
2023/05/07 00:05:02;;;;;;;9.13;8.43;;;;;;;15.65;91.70;101476.66;5073187;28;20032;-67
2023/05/07 00:07:27;;;;;;;8.52;7.68;;;;;;;15.70;91.63;101477.16;5072407;28;20021;-67
2023/05/07 00:09:53;;;;;;;9.35;8.63;;;;;;;15.54;92.37;101452.44;5073158;28;20028;-67
2023/05/07 00:12:18;;;;;;;9.52;8.60;;;;;;;15.69;91.34;101474.63;5074091;28;20025;-67
2023/05/07 00:14:46;;;;;;;9.50;8.68;;;;;;;15.72;89.92;101475.25;5073189;28;20433;-67
2023/05/07 00:17:12;;;;;;;9.23;8.32;;;;;;;15.70;89.81;101468.28;5072730;28;20024;-67
2023/05/07 00:19:37;;;;;;;9.05;8.15;;;;;;;15.78;90.27;101465.88;5073169;28;20047;-67
2023/05/07 00:22:02;;;;;;;8.60;7.90;;;;;;;15.64;89.69;101453.47;5073255;28;20171;-67
2023/05/07 00:24:28;;;;;;;10.65;8.95;;;;;;;15.77;89.79;101456.97;5074082;28;20025;-67
2023/05/07 00:26:57;;;;;;;10.13;9.13;;;;;;;15.73;89.23;101449.25;5073897;28;20029;-67
2023/05/07 00:29:23;;;;;;;8.77;7.97;;;;;;;15.77;89.84;101456.13;5073957;28;20032;-67
2023/05/07 00:31:50;;;;;;;10.20;8.90;;;;;;;15.77;89.42;101464.19;5073548;28;20028;-67
2023/05/07 00:34:15;;;;;;;9.43;8.55;;;;;;;15.79;90.54;101462.22;5073819;28;20107;-67
2023/05/07 00:36:40;;;;;;;9.45;8.65;;;;;;;15.69;89.87;101451.34;5072071;28;20104;-67
2023/05/07 00:39:06;;;;;;;9.25;8.45;;;;;;;15.66;90.56;101455.06;5073771;28;20047;-67
2023/05/07 00:41:32;;;;;;;9.50;8.52;;;;;;;15.67;91.72;101458.59;5073010;28;20531;-67
2023/05/07 00:43:57;;;;;;;8.82;8.07;;;;;;;15.71;90.75;101456.59;5073804;28;20024;-67
2023/05/07 00:46:25;;;;;;;9.25;8.55;;;;;;;15.72;91.05;101451.09;5073235;28;20021;-67
2023/05/07 00:48:51;;;;;;;9.20;8.45;;;;;;;15.71;91.39;101449.41;5072391;28;20038;-67
2023/05/07 00:51:18;;;;;;;9.38;8.45;;;;;;;15.59;92.59;101448.47;5072579;28;20020;-67
2023/05/07 00:53:44;;;;;;;8.82;8.13;;;;;;;15.66;91.27;101432.75;5073583;28;20020;-67
2023/05/07 00:56:09;;;;;;;9.20;8.38;;;;;;;15.55;93.10;101440.75;5055535;28;20496;-67
2023/05/07 00:58:35;;;;;;;10.00;9.20;;;;;;;15.60;92.48;101444.78;5073106;28;20030;-67
2023/05/07 01:01:01;;;;;;;10.02;9.20;;;;;;;15.54;92.46;101447.09;5073118;28;20042;-67
2023/05/07 01:03:29;;;;;;;9.98;9.00;;;;;;;15.56;92.07;101448.69;5073105;28;20028;-67
2023/05/07 01:05:59;;;;;;;10.02;9.07;;;;;;;15.47;92.62;101448.50;5072994;28;20025;-67
2023/05/07 01:08:26;;;;;;;10.50;9.43;;;;;;;15.52;93.81;101446.34;5071374;28;20051;-67
2023/05/07 01:10:56;;;;;;;10.55;9.68;;;;;;;15.48;94.48;101452.91;5071913;28;20036;-67
2023/05/07 01:13:24;;;;;;;;;;;;;;;15.71;91.74;101452.06;5073779;28;20032;-67
2023/05/07 01:15:49;;;;;;;10.70;9.70;;;;;;;15.47;93.98;101449.38;5073048;28;19912;-67
2023/05/07 01:18:17;;;;;;;12.98;10.48;;;;;;;15.35;95.01;101434.16;5072769;28;20744;-67
2023/05/07 01:20:43;;;;;;;11.63;10.63;;;;;;;15.49;93.67;101431.31;5072721;28;20032;-67
2023/05/07 01:23:10;;;;;;;11.52;10.40;;;;;;;15.55;93.23;101438.06;5072335;28;20051;-67
2023/05/07 01:25:38;;;;;;;11.32;10.25;;;;;;;15.54;92.73;101439.91;5072902;28;20094;-67
2023/05/07 01:28:05;;;;;;;11.43;10.23;;;;;;;15.50;92.96;101422.34;5072511;28;20058;-67
2023/05/07 01:30:32;;;;;;;11.85;10.65;;;;;;;15.58;93.06;101422.59;5072643;28;20032;-67
2023/05/07 01:33:08;;;;;;;11.55;10.32;;;;;;;15.65;92.71;101417.66;5105107;28;20020;-67
2023/05/07 01:35:40;;;;;;;11.48;10.48;;;;;;;15.57;92.83;101420.91;5072135;28;20059;-67
2023/05/07 01:38:06;;;;;;;12.02;10.93;;;;;;;15.54;92.67;101417.59;5071965;28;20077;-67
2023/05/07 01:40:32;;;;;;;11.98;10.85;;;;;;;15.41;93.05;101418.50;5072256;28;20024;-67
2023/05/07 01:42:58;;;;;;;12.05;11.05;;;;;;;15.31;93.68;101422.84;5072137;28;20044;-67
2023/05/07 01:45:24;;;;;;;13.20;12.00;;;;;;;15.40;93.58;101415.94;5072310;28;20043;-67
2023/05/07 01:47:50;;;;;;;13.10;11.90;;;;;;;15.36;93.24;101399.22;5072053;28;20047;-67
2023/05/07 01:50:18;;;;;;;13.27;12.18;;;;;;;15.40;93.23;101408.75;5070797;28;20060;-67
2023/05/07 01:52:44;;;;;;;13.65;12.35;;;;;;;15.28;93.56;101412.34;5071407;28;20046;-67
2023/05/07 01:55:09;;;;;;;13.25;11.93;;;;;;;15.29;93.19;101414.03;5070748;28;20483;-67
2023/05/07 01:57:35;;;;;;;14.55;13.25;;;;;;;15.43;93.31;101405.84;5104381;28;20027;-67
2023/05/07 02:00:05;;;;;;;14.52;13.23;;;;;;;15.51;93.07;101404.41;5072338;28;20060;-67
2023/05/07 02:02:31;;;;;;;14.30;13.10;;;;;;;15.43;93.49;101400.47;5072114;28;20475;-67
2023/05/07 02:04:59;;;;;;;14.93;13.63;;;;;;;15.35;93.79;101404.69;5072165;28;20050;-67
2023/05/07 02:07:29;;;;;;;16.52;14.88;;;;;;;15.24;94.16;101404.66;5071381;28;20024;-67
2023/05/07 02:09:55;;;;;;;15.60;14.25;;;;;;;15.23;94.63;101406.44;5072092;28;20020;-67
2023/05/07 02:12:21;;;;;;;15.68;14.20;;;;;;;15.35;94.62;101415.41;5071842;28;20044;-67
2023/05/07 02:14:46;;;;;;;17.38;15.55;;;;;;;15.24;94.75;101410.00;5072210;28;20387;-67
2023/05/07 02:17:11;;;;;;;17.55;15.90;;;;;;;15.34;94.68;101405.66;5072083;28;20040;-67
2023/05/07 02:19:40;;;;;;;17.77;16.23;;;;;;;15.24;94.62;101404.66;5071748;28;20031;-68
2023/05/07 02:22:06;;;;;;;17.67;16.08;;;;;;;15.22;95.51;101412.78;5071076;28;20045;-67
2023/05/07 02:24:31;;;;;;;18.33;16.73;;;;;;;15.16;96.03;101414.09;5071937;28;20044;-67
2023/05/07 02:26:57;;;;;;;17.05;15.55;;;;;;;15.22;95.84;101408.28;5071909;28;20103;-67
2023/05/07 02:29:22;;;;;;;18.23;16.33;;;;;;;15.19;96.42;101418.38;5071831;28;20032;-67
2023/05/07 02:31:50;;;;;;;17.00;15.50;;;;;;;15.22;96.40;101423.50;5071831;28;20029;-67
2023/05/07 02:34:16;;;;;;;18.40;16.50;;;;;;;15.14;97.09;101416.03;5070418;28;20025;-67
2023/05/07 02:36:42;;;;;;;18.77;16.95;;;;;;;15.25;96.18;101425.97;5070154;28;20036;-67
2023/05/07 02:39:07;;;;;;;18.70;17.10;;;;;;;15.30;95.82;101415.78;5070662;28;20379;-67
2023/05/07 02:41:33;;;;;;;18.10;16.50;;;;;;;15.35;95.57;101412.72;5071488;28;20111;-67
2023/05/07 02:43:58;;;;;;;18.40;16.73;;;;;;;15.30;95.60;101417.59;5071759;28;20051;-67
2023/05/07 02:46:23;;;;;;;18.95;17.13;;;;;;;15.35;95.58;101410.94;5070126;28;20103;-67
2023/05/07 02:48:49;;;;;;;18.85;17.23;;;;;;;15.19;96.27;101411.19;5071587;28;20020;-67
2023/05/07 02:51:16;;;;;;;19.08;17.17;;;;;;;15.19;96.26;101424.59;5071048;28;20020;-68
2023/05/07 02:53:42;;;;;;;18.85;17.15;;;;;;;15.10;96.62;101424.41;5071795;28;20031;-67
2023/05/07 02:56:07;;;;;;;20.00;18.20;;;;;;;15.01;98.44;101428.63;5071587;28;20020;-67
2023/05/07 02:58:33;;;;;;;19.63;17.83;;;;;;;15.03;98.92;101426.69;5104219;28;20169;-67
2023/05/07 03:00:58;;;;;;;19.35;17.67;;;;;;;15.14;98.11;101410.66;5103829;28;20024;-67
2023/05/07 03:03:24;;;;;;;19.83;17.80;;;;;;;15.07;97.72;101413.91;5071368;28;20029;-67
2023/05/07 03:05:49;;;;;;;20.95;19.05;;;;;;;15.15;97.33;101404.34;5106976;28;20028;-67
2023/05/07 03:08:15;;;;;;;22.05;19.77;;;;;;;15.19;97.34;101407.66;5107562;28;20496;-67
2023/05/07 03:10:40;;;;;;;21.83;19.70;;;;;;;15.21;97.14;101409.25;5108304;28;20021;-67
2023/05/07 03:13:10;;;;;;;21.13;19.27;;;;;;;15.14;97.77;101415.16;5107893;28;20070;-67
2023/05/07 03:15:38;;;;;;;21.52;19.42;;;;;;;15.02;98.21;101408.03;5107745;28;20028;-67
2023/05/07 03:18:03;;;;;;;23.77;21.65;;;;;;;15.16;97.85;101408.75;5075273;28;20056;-67
2023/05/07 03:20:29;;;;;;;24.38;22.15;;;;;;;15.07;98.51;101416.59;5073904;28;20063;-67
2023/05/07 03:23:00;;;;;;;23.08;20.98;;;;;;;15.06;98.77;101406.84;5074508;28;20498;-67
2023/05/07 03:25:25;;;;;;;25.20;22.90;;;;;;;15.20;98.13;101401.31;5075353;28;20424;-67
2023/05/07 03:27:53;;;;;;;24.83;22.40;;;;;;;15.15;98.16;101400.81;5075092;28;20032;-68
2023/05/07 03:30:19;;;;;;;26.30;24.02;;;;;;;15.16;98.02;101399.84;5107358;28;20029;-67
2023/05/07 03:32:45;;;;;;;27.63;25.08;;;;;;;15.08;98.29;101402.22;5074932;28;20036;-67
2023/05/07 03:35:10;;;;;;;26.30;23.85;;;;;;;15.04;99.32;101390.88;5075093;28;20021;-67
2023/05/07 03:37:41;;;;;;;27.38;24.98;;;;;;;15.20;98.54;101401.31;5074327;28;20060;-67
2023/05/07 03:40:08;;;;;;;26.35;23.83;;;;;;;15.11;98.57;101400.16;5106655;28;20035;-67
2023/05/07 03:42:33;;;;;;;27.75;25.23;;;;;;;15.13;98.17;101390.22;5074713;28;20039;-67
2023/05/07 03:44:58;;;;;;;24.88;22.73;;;;;;;15.17;98.74;101398.88;5074565;28;20024;-67
2023/05/07 03:47:24;;;;;;;27.02;24.52;;;;;;;15.17;98.70;101388.16;5106971;28;20452;-67
2023/05/07 03:49:50;;;;;;;27.55;24.67;;;;;;;15.11;98.00;101392.13;5107319;28;20025;-67
2023/05/07 03:52:16;;;;;;;28.42;25.55;;;;;;;15.12;98.42;101384.97;5106761;28;20027;-67
2023/05/07 03:54:43;;;;;;;30.55;27.33;;;;;;;15.09;98.67;101393.22;5107414;28;20032;-67
2023/05/07 03:57:09;;;;;;;28.45;25.98;;;;;;;15.10;98.53;101409.19;5074616;28;20560;-67
2023/05/07 03:59:34;;;;;;;28.48;25.88;;;;;;;15.17;98.78;101399.72;5074317;28;20104;-67
2023/05/07 04:01:59;;;;;;;30.20;27.45;;;;;;;15.09;99.86;101411.97;5074486;28;20391;-67
2023/05/07 04:04:25;;;;;;;30.00;27.13;;;;;;;15.19;99.03;101402.31;5074169;28;20024;-67
2023/05/07 04:06:51;;;;;;;28.98;26.40;;;;;;;15.20;98.69;101412.03;5106628;28;20020;-67
2023/05/07 04:09:16;;;;;;;28.02;25.50;;;;;;;15.24;98.69;101416.22;5106923;28;20395;-67
2023/05/07 04:11:42;;;;;;;27.65;24.98;;;;;;;15.20;99.05;101426.28;5074336;28;20024;-67
2023/05/07 04:14:07;;;;;;;29.58;26.85;;;;;;;15.01;99.82;101415.22;5074232;28;20039;-67
2023/05/07 04:16:36;;;;;;;27.80;25.20;;;;;;;14.98;99.59;101424.34;5073001;28;20479;-67
2023/05/07 04:19:02;;;;;;;28.27;25.83;;;;;;;15.04;99.57;101425.72;5074106;28;20275;-67
2023/05/07 04:21:27;;;;;;;27.58;25.08;;;;;;;14.99;99.62;101434.06;5073444;28;20438;-67
2023/05/07 04:23:53;;;;;;;27.90;25.55;;;;;;;14.94;100.00;101425.53;5106416;28;20488;-67
2023/05/07 04:26:21;;;;;;;29.42;26.75;;;;;;;14.89;100.00;101421.47;5073698;28;20078;-67
2023/05/07 04:28:46;;;;;;;29.58;26.88;;;;;;;14.94;100.00;101424.66;5073614;28;20013;-67
2023/05/07 04:31:11;;;;;;;30.63;27.95;;;;;;;14.94;100.00;101427.34;5073493;28;20024;-67
2023/05/07 04:33:37;;;;;;;30.40;27.70;;;;;;;14.97;100.00;101424.44;5073641;28;20031;-67
2023/05/07 04:36:03;;;;;;;30.98;28.27;;;;;;;15.06;100.00;101423.78;5073827;28;20123;-67
2023/05/07 04:38:30;;;;;;;31.52;28.58;;;;;;;15.05;100.00;101424.72;5071997;28;20029;-67
2023/05/07 04:40:56;;;;;;;33.10;30.00;;;;;;;15.04;100.00;101423.03;5073632;28;20489;-67
2023/05/07 04:43:22;;;;;;;33.38;30.30;;;;;;;15.05;100.00;101426.56;5073114;28;20472;-67
2023/05/07 04:45:50;;;;;;;31.48;28.55;;;;;;;15.04;100.00;101423.03;5106109;28;20036;-67
2023/05/07 04:48:18;;;;;;;31.58;28.77;;;;;;;15.16;99.68;101423.97;5073305;28;20411;-67
2023/05/07 04:50:44;;;;;;;31.52;28.70;;;;;;;15.16;99.76;101427.50;5073541;28;20020;-67
2023/05/07 04:53:14;;;;;;;29.65;27.00;;;;;;;15.16;99.94;101424.81;5073102;28;20418;-67
2023/05/07 04:55:40;;;;;;;31.58;28.80;;;;;;;15.18;99.79;101436.28;5073679;28;20210;-67
2023/05/07 04:58:05;;;;;;;33.22;29.88;;;;;;;15.20;99.33;101450.41;5073093;28;20099;-67
2023/05/07 05:00:33;;;;;;;31.77;28.85;;;;;;;15.26;99.58;101442.91;5073175;28;20032;-67
2023/05/07 05:02:59;;;;;;;30.90;28.08;;;;;;;15.12;99.85;101443.94;5073340;28;20032;-67
2023/05/07 05:05:24;;;;;;;30.65;27.65;;;;;;;15.17;99.60;101437.22;5073083;28;20112;-67
2023/05/07 05:07:51;;;;;;;31.83;28.70;;;;;;;15.14;99.97;101440.13;5072693;28;20025;-67
2023/05/07 05:10:17;;;;;;;31.88;29.02;;;;;;;15.10;100.00;101444.03;5073047;28;20028;-67
2023/05/07 05:12:42;;;;;;;31.70;28.80;;;;;;;15.16;99.87;101440.88;5072950;28;20020;-67
2023/05/07 05:15:08;;;;;;;31.13;28.42;;;;;;;15.20;99.46;101445.03;5073387;28;20052;-67
2023/05/07 05:17:34;;;;;;;31.80;28.73;;;;;;;15.26;99.33;101441.06;5105252;28;20033;-67
2023/05/07 05:20:00;;;;;;;30.73;27.75;;;;;;;15.27;99.09;101444.63;5072943;28;20024;-67
2023/05/07 05:22:26;;;;;;;32.35;29.45;;;;;;;15.23;99.15;101443.97;5072100;28;20050;-67
2023/05/07 05:24:51;;;;;;;30.90;28.20;;;;;;;15.31;99.23;101438.91;5105491;28;20021;-67
2023/05/07 05:27:17;;;;;;;30.70;27.65;;;;;;;15.30;99.11;101449.75;5104775;28;20388;-68
2023/05/07 05:29:42;;;;;;;29.67;26.88;;;;;;;15.36;99.43;101455.53;5071411;28;20065;-67
2023/05/07 05:32:08;;;;;;;30.38;27.75;;;;;;;15.39;99.53;101457.13;5105213;28;20478;-67
2023/05/07 05:34:33;;;;;;;30.83;27.77;;;;;;;15.30;99.23;101452.44;5105131;28;20035;-67
2023/05/07 05:36:59;;;;;;;30.15;27.15;;;;;;;15.34;99.08;101464.63;5071923;28;20426;-67
2023/05/07 05:39:25;;;;;;;31.00;28.20;;;;;;;15.39;98.84;101451.75;5072509;28;20024;-67
2023/05/07 05:41:50;;;;;;;30.27;27.58;;;;;;;15.35;98.85;101459.19;5104845;28;20091;-67
2023/05/07 05:44:15;;;;;;;30.40;27.80;;;;;;;15.31;98.79;101464.88;5072354;28;20070;-67
2023/05/07 05:46:43;;;;;;;30.40;27.48;;;;;;;15.38;98.83;101476.84;5072299;28;20070;-67
2023/05/07 05:49:08;;;;;;;30.55;27.52;;;;;;;15.30;98.82;101473.88;5072511;28;20032;-67
2023/05/07 05:51:34;;;;;;;31.33;28.63;;;;;;;15.29;99.31;101474.81;5071588;28;20394;-67
2023/05/07 05:54:01;;;;;;;28.20;25.80;;;;;;;15.24;99.13;101475.19;5072321;28;20032;-67
2023/05/07 05:56:27;;;;;;;29.83;27.13;;;;;;;15.28;99.19;101471.28;5071691;28;20048;-67
2023/05/07 05:58:52;;;;;;;30.50;27.60;;;;;;;15.35;99.20;101471.69;5072268;28;20059;-67
2023/05/07 06:01:18;;;;;;;29.08;26.38;;;;;;;15.31;99.21;101468.38;5104598;28;20107;-67
2023/05/07 06:03:44;;;;;;;28.90;26.17;;;;;;;15.33;99.28;101458.44;5104816;28;20243;-67
2023/05/07 06:06:09;;;;;;;28.65;26.08;;;;;;;15.36;98.73;101473.44;5070560;28;20017;-67
2023/05/07 06:08:35;;;;;;;30.02;27.25;;;;;;;15.47;98.75;101469.94;5072077;28;20387;-67
2023/05/07 06:11:01;;;;;;;29.58;26.88;;;;;;;15.49;98.52;101478.72;5071811;28;20107;-67
2023/05/07 06:13:31;;;;;;;28.75;26.10;;;;;;;15.47;98.14;101476.19;5071698;28;20025;-67
2023/05/07 06:15:58;;;;;;;27.58;25.38;;;;;;;15.51;98.45;101468.75;5071896;28;20036;-67
2023/05/07 06:18:24;;;;;;;28.15;25.55;;;;;;;15.57;97.89;101471.84;5071759;28;20059;-67
2023/05/07 06:20:51;;;;;;;29.00;26.23;;;;;;;15.62;98.12;101474.19;5070750;28;20024;-67
2023/05/07 06:23:17;;;;;;;27.70;25.20;;;;;;;15.63;98.16;101478.56;5071341;28;20404;-67
2023/05/07 06:25:47;;;;;;;27.15;24.63;;;;;;;15.65;97.43;101477.50;5071799;28;20028;-67
2023/05/07 06:28:13;;;;;;;27.85;25.25;;;;;;;15.69;97.14;101469.25;5071695;28;20035;-67
2023/05/07 06:30:38;;;;;;;28.83;26.13;;;;;;;15.65;97.22;101465.91;5071895;28;20024;-67
2023/05/07 06:33:07;;;;;;;29.75;27.05;;;;;;;15.72;98.22;101467.19;5071761;28;20031;-67
2023/05/07 06:35:32;;;;;;;25.70;23.50;;;;;;;15.69;97.78;101456.69;5071634;28;20155;-67
2023/05/07 06:37:57;;;;;;;27.33;24.75;;;;;;;15.73;97.22;101465.34;5071218;28;20526;-67
2023/05/07 06:40:23;;;;;;;26.50;24.00;;;;;;;15.85;97.02;101472.47;5070891;28;20020;-67
2023/05/07 06:42:48;;;;;;;26.50;24.08;;;;;;;15.81;97.14;101465.66;5071507;28;20028;-67
2023/05/07 06:45:13;;;;;;;26.58;23.98;;;;;;;15.89;97.16;101479.34;5071694;28;20364;-67
2023/05/07 06:47:39;;;;;;;25.30;23.13;;;;;;;15.95;97.11;101488.75;5071402;28;20051;-67
2023/05/07 06:50:05;;;;;;;26.15;23.58;;;;;;;15.98;96.86;101494.75;5104336;28;20020;-67
2023/05/07 06:52:30;;;;;;;25.42;23.02;;;;;;;15.87;95.61;101482.13;5070841;28;20487;-67
2023/05/07 06:54:55;;;;;;;24.63;22.42;;;;;;;15.87;95.82;101494.69;5071392;28;20383;-67
2023/05/07 06:57:21;;;;;;;25.60;23.02;;;;;;;15.90;95.02;101489.09;5071242;28;20016;-67
2023/05/07 06:59:46;;;;;;;25.42;23.05;;;;;;;15.93;95.96;101496.06;5104076;28;20025;-67
2023/05/07 07:02:12;;;;;;;24.88;22.77;;;;;;;15.91;95.57;101496.16;5071502;28;20099;-67
2023/05/07 07:04:37;;;;;;;24.10;21.90;;;;;;;15.89;95.05;101498.13;5071559;28;20025;-67
2023/05/07 07:07:02;;;;;;;25.15;22.85;;;;;;;15.85;95.22;101496.63;5070915;28;20471;-67
2023/05/07 07:09:28;;;;;;;25.08;22.67;;;;;;;15.89;95.14;101501.66;5071146;28;20028;-67
2023/05/07 07:11:53;;;;;;;26.20;23.67;;;;;;;15.90;94.92;101500.69;5071233;28;20040;-67
2023/05/07 07:14:23;;;;;;;24.38;22.15;;;;;;;15.95;95.41;101489.59;5071361;28;20056;-67
2023/05/07 07:16:49;;;;;;;24.60;22.35;;;;;;;15.98;95.62;101497.44;5104089;28;20403;-67
2023/05/07 07:19:15;;;;;;;23.42;21.27;;;;;;;15.98;95.24;101497.44;5071437;28;20035;-67
2023/05/07 07:21:41;;;;;;;23.52;21.45;;;;;;;16.02;95.54;101500.72;5070920;28;20024;-67
2023/05/07 07:24:06;;;;;;;23.33;21.13;;;;;;;16.07;94.74;101507.47;5069570;28;20037;-67
2023/05/07 07:26:32;;;;;;;24.02;21.60;;;;;;;16.11;94.93;101503.56;5069632;28;20043;-67
2023/05/07 07:28:57;;;;;;;25.05;22.60;;;;;;;16.15;95.04;101508.69;5103857;28;20036;-67
2023/05/07 07:31:22;;;;;;;22.25;20.33;;;;;;;16.16;94.64;101505.06;5071141;28;20025;-67
2023/05/07 07:33:50;;;;;;;24.13;21.95;;;;;;;16.16;94.25;101508.59;5071199;28;20020;-67
2023/05/07 07:36:16;;;;;;;23.98;21.73;;;;;;;16.15;93.63;101514.06;5103209;28;20032;-67
2023/05/07 07:38:41;;;;;;;22.90;20.83;;;;;;;16.19;93.99;101518.25;5103605;28;20471;-67
2023/05/07 07:41:10;;;;;;;23.35;21.35;;;;;;;16.16;94.16;101516.66;5070927;28;20052;-67
2023/05/07 07:43:35;;;;;;;23.30;21.20;;;;;;;16.24;94.84;101508.03;5103506;28;20471;-67
2023/05/07 07:46:03;;;;;;;25.08;22.58;;;;;;;16.30;93.20;101515.59;5103643;28;20029;-67
2023/05/07 07:48:30;;;;;;;23.95;21.75;;;;;;;16.36;93.24;101515.13;5071001;28;20025;-67
2023/05/07 07:50:56;;;;;;;23.73;21.30;;;;;;;16.43;93.50;101510.13;5071191;28;20497;-66
2023/05/07 07:53:21;;;;;;;24.65;22.38;;;;;;;16.41;93.36;101501.31;5106143;28;20025;-67
2023/05/07 07:55:46;;;;;;;22.85;20.55;;;;;;;16.44;93.13;101512.72;5074456;28;20029;-67
2023/05/07 07:58:12;;;;;;;23.50;21.42;;;;;;;16.48;93.18;101516.88;5074575;28;20032;-67
2023/05/07 08:00:40;;;;;;;23.63;21.52;;;;;;;16.53;92.54;101511.13;5074704;28;20070;-67
2023/05/07 08:03:07;;;;;;;22.90;20.85;;;;;;;16.54;92.51;101507.47;5107051;28;20016;-67
2023/05/07 08:05:35;;;;;;;22.63;20.60;;;;;;;16.58;92.30;101515.16;5074088;28;20545;-67
2023/05/07 08:08:00;;;;;;;23.13;21.13;;;;;;;16.64;92.88;101504.91;5089322;28;20012;-67
2023/05/07 08:10:26;;;;;;;22.38;20.23;;;;;;;16.79;92.27;101512.69;5106720;28;20042;-67
2023/05/07 08:12:51;;;;;;;22.00;20.02;;;;;;;16.94;92.45;101509.72;5106654;28;20337;-67
2023/05/07 08:15:17;;;;;;;22.75;20.48;;;;;;;17.03;91.65;101517.09;5074204;28;20064;-67
2023/05/07 08:17:43;;;;;;;23.25;21.15;;;;;;;17.16;90.26;101520.50;5074012;28;20108;-67
2023/05/07 08:20:09;;;;;;;21.52;19.52;;;;;;;17.29;89.88;101522.19;5074131;28;20031;-67
2023/05/07 08:22:35;;;;;;;22.00;19.75;;;;;;;17.38;89.39;101518.75;5105706;28;20058;-67
2023/05/07 08:25:05;;;;;;;20.52;18.77;;;;;;;17.47;88.84;101523.38;5074100;28;20484;-67
2023/05/07 08:27:31;;;;;;;21.85;19.75;;;;;;;17.56;88.99;101527.16;5073755;28;20378;-67
2023/05/07 08:29:56;;;;;;;20.42;18.60;;;;;;;17.58;88.89;101527.88;5106656;28;20024;-67
2023/05/07 08:32:24;;;;;;;21.02;19.02;;;;;;;17.61;88.72;101525.81;5106043;28;20021;-67
2023/05/07 08:34:49;;;;;;;20.33;18.60;;;;;;;17.69;88.34;101528.72;5073642;28;20051;-67
2023/05/07 08:37:15;;;;;;;20.02;18.13;;;;;;;17.80;88.33;101525.19;5072975;28;20028;-66
2023/05/07 08:39:45;;;;;;;18.75;17.00;;;;;;;17.78;86.46;101528.97;5106236;28;20028;-66
2023/05/07 08:42:12;;;;;;;19.98;18.20;;;;;;;17.85;87.21;101531.06;5073744;28;20104;-66
2023/05/07 08:44:39;;;;;;;20.65;18.63;;;;;;;17.89;86.43;101528.97;5073797;28;20025;-67
2023/05/07 08:47:07;;;;;;;20.23;18.23;;;;;;;17.89;87.05;101526.25;5073401;28;20175;-67
2023/05/07 08:49:34;;;;;;;20.63;18.73;;;;;;;17.97;86.99;101534.56;5105825;28;20021;-67
2023/05/07 08:52:00;;;;;;;20.35;17.67;;;;;;;17.98;86.41;101536.25;5072960;28;20035;-66
2023/05/07 08:54:26;;;;;;;19.75;17.98;;;;;;;17.96;86.14;101524.75;5105872;28;20111;-66
2023/05/07 08:56:51;;;;;;;19.63;17.73;;;;;;;18.05;86.29;101541.97;5073308;28;20481;-67
2023/05/07 08:59:20;;;;;;;19.60;17.77;;;;;;;18.09;85.60;101540.75;5073502;28;20031;-66
2023/05/07 09:01:45;;;;;;;20.60;18.55;;;;;;;18.06;85.38;101536.47;5105793;28;20206;-66
2023/05/07 09:04:12;;;;;;;21.05;18.98;;;;;;;18.17;85.26;101541.78;5072615;28;20029;-67
2023/05/07 09:06:41;;;;;;;21.35;19.45;;;;;;;18.27;85.21;101538.34;5071768;28;20017;-67
2023/05/07 09:09:13;;;;;;;21.25;19.27;;;;;;;18.32;84.08;101544.19;5073261;28;20387;-66
2023/05/07 09:11:39;;;;;;;20.08;18.27;;;;;;;18.31;83.44;101537.94;5073070;28;20365;-67
2023/05/07 09:14:04;;;;;;;21.65;19.75;;;;;;;18.37;83.67;101541.97;5105742;28;20027;-67
2023/05/07 09:16:32;;;;;;;23.35;20.92;;;;;;;18.36;84.68;101541.09;5072692;28;20115;-67
2023/05/07 09:19:00;;;;;;;21.88;19.83;;;;;;;18.36;83.23;101541.09;5072787;28;20024;-67
2023/05/07 09:21:28;;;;;;;21.83;19.85;;;;;;;18.46;83.74;101549.25;5072322;28;20028;-66
2023/05/07 09:23:56;;;;;;;23.02;20.98;;;;;;;18.44;83.41;101542.28;5072766;28;20495;-66
2023/05/07 09:26:22;;;;;;;22.23;20.20;;;;;;;18.52;82.69;101540.63;5072713;28;20025;-67
2023/05/07 09:28:47;;;;;;;22.60;20.58;;;;;;;18.54;82.91;101544.06;5071650;28;20394;-67
2023/05/07 09:31:13;;;;;;;23.15;20.88;;;;;;;18.65;82.39;101544.97;5072735;28;20104;-66
2023/05/07 09:33:39;;;;;;;22.10;19.90;;;;;;;18.65;81.59;101544.97;5072473;28;20020;-67
2023/05/07 09:36:07;;;;;;;22.90;19.85;;;;;;;18.62;81.58;101551.50;5072452;28;20054;-67
2023/05/07 09:38:33;;;;;;;22.63;20.52;;;;;;;18.71;81.96;101541.78;5104952;28;20032;-67
2023/05/07 09:41:10;;;;;;;21.90;19.85;;;;;;;18.75;82.23;101546.78;5105219;28;20032;-67
2023/05/07 09:43:38;;;;;;;22.83;20.60;;;;;;;18.72;81.91;101538.94;5072397;28;20093;-67
2023/05/07 09:46:07;;;;;;;23.25;21.15;;;;;;;18.73;82.00;101555.94;5105046;28;20023;-67
2023/05/07 09:48:38;;;;;;;24.45;22.05;;;;;;;18.73;81.65;101548.75;5072118;28;20032;-67
2023/05/07 09:51:11;;;;;;;23.13;20.40;;;;;;;18.67;81.24;101548.41;5072512;28;20036;-66
2023/05/07 09:53:37;;;;;;;23.23;20.98;;;;;;;18.66;81.99;101552.94;5072254;28;20020;-67
2023/05/07 09:56:03;;;;;;;24.40;22.10;;;;;;;18.77;83.64;101547.50;5072283;28;20107;-67
2023/05/07 09:58:30;;;;;;;23.63;21.20;;;;;;;18.84;82.55;101542.44;5070770;28;20039;-67
2023/05/07 10:00:57;;;;;;;23.40;21.45;;;;;;;18.89;82.06;101547.44;5104954;28;20023;-67
2023/05/07 10:03:27;;;;;;;21.02;19.05;;;;;;;18.95;81.60;101550.44;5071722;28;20432;-67
2023/05/07 10:05:55;;;;;;;24.00;21.77;;;;;;;18.93;81.32;101549.72;5072222;28;20379;-66
2023/05/07 10:08:21;;;;;;;24.60;22.20;;;;;;;18.93;80.10;101548.88;5071583;28;20483;-66
2023/05/07 10:10:49;;;;;;;22.90;20.88;;;;;;;18.94;80.54;101553.25;5104642;28;20052;-67
2023/05/07 10:13:16;;;;;;;23.27;21.13;;;;;;;19.09;81.41;101545.66;5071922;28;20024;-66
2023/05/07 10:15:42;;;;;;;22.38;20.42;;;;;;;19.28;80.32;101552.00;5104067;28;20158;-66
2023/05/07 10:18:11;;;;;;;23.10;20.85;;;;;;;19.42;80.39;101550.78;5071814;28;20029;-67
2023/05/07 10:20:37;;;;;;;22.27;19.92;;;;;;;19.60;78.86;101552.81;5072006;28;20058;-66
2023/05/07 10:23:05;;;;;;;21.77;19.77;;;;;;;19.69;78.76;101558.28;5069982;28;20091;-66
2023/05/07 10:25:32;;;;;;;20.83;18.98;;;;;;;19.96;77.20;101545.94;5104027;28;20029;-66
2023/05/07 10:28:04;;;;;;;20.00;18.20;;;;;;;20.14;76.28;101552.34;5071667;28;20016;-67
2023/05/07 10:30:32;;;;;;;19.45;17.75;;;;;;;20.48;75.55;101542.97;5071592;28;20024;-66
2023/05/07 10:33:05;;;;;;;19.83;17.93;;;;;;;20.71;75.44;101552.50;5071796;28;20020;-66
2023/05/07 10:35:37;;;;;;;20.10;18.17;;;;;;;20.67;75.18;101552.91;5071620;28;20024;-66
2023/05/07 10:38:04;;;;;;;18.00;16.40;;;;;;;20.81;73.85;101555.16;5071235;28;20495;-66
2023/05/07 10:40:31;;;;;;;19.58;17.70;;;;;;;20.84;73.57;101555.72;5070388;28;20081;-66
2023/05/07 10:42:59;;;;;;;18.02;16.38;;;;;;;20.80;74.24;101551.59;5071690;28;20032;-66
2023/05/07 10:45:25;;;;;;;17.80;16.10;;;;;;;20.84;71.88;101552.16;5071493;28;20039;-66
2023/05/07 10:48:16;;;;;;;18.20;16.42;;;;;;;20.92;72.72;101546.03;5103980;28;20024;-67
2023/05/07 10:50:43;;;;;;;18.80;15.95;;;;;;;20.87;73.09;101550.00;5071646;28;20035;-66
2023/05/07 10:53:18;;;;;;;19.90;17.90;;;;;;;20.97;74.25;101557.25;5071370;28;20098;-66
2023/05/07 10:55:44;;;;;;;18.00;16.33;;;;;;;20.86;72.58;101556.44;5071605;28;20085;-66
2023/05/07 10:58:31;;;;;;;19.17;17.20;;;;;;;20.85;73.33;101552.03;5087281;28;20059;-66
2023/05/07 11:01:00;;;;;;;17.63;15.98;;;;;;;20.89;72.56;101555.28;5071371;28;20028;-66
2023/05/07 11:03:27;;;;;;;18.27;16.35;;;;;;;20.86;71.98;101558.28;5071480;28;20032;-66
2023/05/07 11:06:12;;;;;;;17.40;15.85;;;;;;;20.94;73.18;101560.25;5071551;28;20024;-66
2023/05/07 11:08:56;;;;;;;17.08;15.65;;;;;;;20.97;72.90;101557.25;5104032;28;20115;-66